sensor_id;sensor_type;location;lat;lon;timestamp;temperature;humidity
13310;DHT22;6723;48.256;16.402;2022-12-18T00:01:18;-0.80;99.90
13310;DHT22;6723;48.256;16.402;2022-12-18T00:03:44;-0.80;99.90
13310;DHT22;6723;48.256;16.402;2022-12-18T00:06:10;-0.80;99.90
13310;DHT22;6723;48.256;16.402;2022-12-18T00:08:37;-0.90;99.90
13310;DHT22;6723;48.256;16.402;2022-12-18T00:11:08;-0.90;99.90
13310;DHT22;6723;48.256;16.402;2022-12-18T00:13:35;-1.00;99.90
13310;DHT22;6723;48.256;16.402;2022-12-18T00:16:02;-1.00;99.90
13310;DHT22;6723;48.256;16.402;2022-12-18T00:18:28;-1.00;99.90
13310;DHT22;6723;48.256;16.402;2022-12-18T00:20:54;-1.00;99.90
13310;DHT22;6723;48.256;16.402;2022-12-18T00:23:23;-1.10;99.90
13310;DHT22;6723;48.256;16.402;2022-12-18T00:25:49;-1.10;99.90
13310;DHT22;6723;48.256;16.402;2022-12-18T00:28:15;-1.20;99.90
13310;DHT22;6723;48.256;16.402;2022-12-18T00:30:41;-1.20;99.90
13310;DHT22;6723;48.256;16.402;2022-12-18T00:33:06;-1.20;99.90
13310;DHT22;6723;48.256;16.402;2022-12-18T00:35:32;-1.20;99.90
13310;DHT22;6723;48.256;16.402;2022-12-18T00:37:58;-1.20;99.90
13310;DHT22;6723;48.256;16.402;2022-12-18T00:40:24;-1.20;99.90
13310;DHT22;6723;48.256;16.402;2022-12-18T00:42:49;-1.30;99.90
13310;DHT22;6723;48.256;16.402;2022-12-18T00:45:22;-1.40;99.90
13310;DHT22;6723;48.256;16.402;2022-12-18T00:47:48;-1.40;99.90
13310;DHT22;6723;48.256;16.402;2022-12-18T00:50:14;-1.50;99.90
13310;DHT22;6723;48.256;16.402;2022-12-18T00:52:41;-1.50;99.90
13310;DHT22;6723;48.256;16.402;2022-12-18T00:55:07;-1.50;99.90
13310;DHT22;6723;48.256;16.402;2022-12-18T00:57:33;-1.50;99.90
13310;DHT22;6723;48.256;16.402;2022-12-18T00:59:59;-1.50;99.90
13310;DHT22;6723;48.256;16.402;2022-12-18T01:02:25;-1.60;99.90
13310;DHT22;6723;48.256;16.402;2022-12-18T01:04:51;-1.60;99.90
13310;DHT22;6723;48.256;16.402;2022-12-18T01:07:19;-1.60;99.90
13310;DHT22;6723;48.256;16.402;2022-12-18T01:09:45;-1.60;99.90
13310;DHT22;6723;48.256;16.402;2022-12-18T01:12:11;-1.70;99.90
13310;DHT22;6723;48.256;16.402;2022-12-18T01:14:37;-1.70;99.90
13310;DHT22;6723;48.256;16.402;2022-12-18T01:17:04;-1.70;99.90
13310;DHT22;6723;48.256;16.402;2022-12-18T01:19:30;-1.70;99.90
13310;DHT22;6723;48.256;16.402;2022-12-18T01:21:56;-1.80;99.90
13310;DHT22;6723;48.256;16.402;2022-12-18T01:24:22;-1.80;99.90
13310;DHT22;6723;48.256;16.402;2022-12-18T01:26:50;-1.80;99.90
13310;DHT22;6723;48.256;16.402;2022-12-18T01:29:16;-1.90;99.90
13310;DHT22;6723;48.256;16.402;2022-12-18T01:31:43;-1.90;99.90
13310;DHT22;6723;48.256;16.402;2022-12-18T01:34:09;-1.90;99.90
13310;DHT22;6723;48.256;16.402;2022-12-18T01:36:37;-1.90;99.90
13310;DHT22;6723;48.256;16.402;2022-12-18T01:39:10;-1.90;99.90
13310;DHT22;6723;48.256;16.402;2022-12-18T01:41:37;-1.90;99.90
13310;DHT22;6723;48.256;16.402;2022-12-18T01:50:10;-2.00;99.90
13310;DHT22;6723;48.256;16.402;2022-12-18T01:52:39;-2.10;99.90
13310;DHT22;6723;48.256;16.402;2022-12-18T01:55:10;-2.10;99.90
13310;DHT22;6723;48.256;16.402;2022-12-18T01:57:38;-2.10;99.90
13310;DHT22;6723;48.256;16.402;2022-12-18T02:00:16;-2.10;99.90
13310;DHT22;6723;48.256;16.402;2022-12-18T02:02:44;-2.10;99.90
13310;DHT22;6723;48.256;16.402;2022-12-18T02:05:15;-2.10;99.90
13310;DHT22;6723;48.256;16.402;2022-12-18T02:08:26;-2.10;99.90
13310;DHT22;6723;48.256;16.402;2022-12-18T02:13:41;-2.20;99.90
13310;DHT22;6723;48.256;16.402;2022-12-18T02:16:30;-2.10;99.90
13310;DHT22;6723;48.256;16.402;2022-12-18T02:22:10;-2.20;99.90
13310;DHT22;6723;48.256;16.402;2022-12-18T02:27:38;-2.30;99.90
13310;DHT22;6723;48.256;16.402;2022-12-18T02:30:06;-2.30;99.90
13310;DHT22;6723;48.256;16.402;2022-12-18T02:32:44;-2.30;99.90
13310;DHT22;6723;48.256;16.402;2022-12-18T02:35:20;-2.30;99.90
13310;DHT22;6723;48.256;16.402;2022-12-18T02:37:48;-2.30;99.90
13310;DHT22;6723;48.256;16.402;2022-12-18T02:40:16;-2.40;99.90
13310;DHT22;6723;48.256;16.402;2022-12-18T02:42:43;-2.40;99.90
13310;DHT22;6723;48.256;16.402;2022-12-18T02:45:09;-2.40;99.90
13310;DHT22;6723;48.256;16.402;2022-12-18T02:47:39;-2.40;99.90
13310;DHT22;6723;48.256;16.402;2022-12-18T02:50:26;-2.40;99.90
13310;DHT22;6723;48.256;16.402;2022-12-18T02:57:58;-2.40;99.90
13310;DHT22;6723;48.256;16.402;2022-12-18T03:00:37;-2.50;99.90
13310;DHT22;6723;48.256;16.402;2022-12-18T03:03:25;-2.50;99.90
13310;DHT22;6723;48.256;16.402;2022-12-18T03:06:00;-2.50;99.90
13310;DHT22;6723;48.256;16.402;2022-12-18T03:08:56;-2.50;99.90
13310;DHT22;6723;48.256;16.402;2022-12-18T03:11:19;-2.60;99.90
13310;DHT22;6723;48.256;16.402;2022-12-18T03:14:06;-2.60;99.90
13310;DHT22;6723;48.256;16.402;2022-12-18T03:16:34;-2.60;99.90
13310;DHT22;6723;48.256;16.402;2022-12-18T03:19:04;-2.60;99.90
13310;DHT22;6723;48.256;16.402;2022-12-18T03:21:40;-2.60;99.90
13310;DHT22;6723;48.256;16.402;2022-12-18T03:24:09;-2.60;99.90
13310;DHT22;6723;48.256;16.402;2022-12-18T03:26:37;-2.60;99.90
13310;DHT22;6723;48.256;16.402;2022-12-18T03:32:24;-2.70;99.90
13310;DHT22;6723;48.256;16.402;2022-12-18T03:34:54;-2.70;99.90
13310;DHT22;6723;48.256;16.402;2022-12-18T03:37:22;-2.70;99.90
13310;DHT22;6723;48.256;16.402;2022-12-18T03:39:48;-2.70;99.90
13310;DHT22;6723;48.256;16.402;2022-12-18T03:42:25;-2.80;99.90
13310;DHT22;6723;48.256;16.402;2022-12-18T03:52:48;-2.90;99.90
13310;DHT22;6723;48.256;16.402;2022-12-18T03:55:17;-2.90;99.90
13310;DHT22;6723;48.256;16.402;2022-12-18T03:57:44;-2.90;99.90
13310;DHT22;6723;48.256;16.402;2022-12-18T04:00:16;-2.90;99.90
13310;DHT22;6723;48.256;16.402;2022-12-18T04:02:55;-2.90;99.90
13310;DHT22;6723;48.256;16.402;2022-12-18T04:05:23;-3.00;99.90
13310;DHT22;6723;48.256;16.402;2022-12-18T04:07:50;-3.00;99.90
13310;DHT22;6723;48.256;16.402;2022-12-18T04:10:17;-3.00;99.90
13310;DHT22;6723;48.256;16.402;2022-12-18T04:12:43;-3.00;99.90
13310;DHT22;6723;48.256;16.402;2022-12-18T04:15:11;-3.00;99.90
13310;DHT22;6723;48.256;16.402;2022-12-18T04:17:38;-3.00;99.90
13310;DHT22;6723;48.256;16.402;2022-12-18T04:20:05;-3.00;99.90
13310;DHT22;6723;48.256;16.402;2022-12-18T04:22:31;-3.00;99.90
13310;DHT22;6723;48.256;16.402;2022-12-18T04:24:56;-3.00;99.90
13310;DHT22;6723;48.256;16.402;2022-12-18T04:27:22;-3.00;99.90
13310;DHT22;6723;48.256;16.402;2022-12-18T04:29:48;-3.00;99.90
13310;DHT22;6723;48.256;16.402;2022-12-18T04:32:14;-3.10;99.90
13310;DHT22;6723;48.256;16.402;2022-12-18T04:34:47;-3.10;99.90
13310;DHT22;6723;48.256;16.402;2022-12-18T04:37:13;-3.10;99.90
13310;DHT22;6723;48.256;16.402;2022-12-18T04:39:39;-3.10;99.90
13310;DHT22;6723;48.256;16.402;2022-12-18T04:42:05;-3.00;99.90
13310;DHT22;6723;48.256;16.402;2022-12-18T04:44:30;-3.00;99.90
13310;DHT22;6723;48.256;16.402;2022-12-18T04:46:57;-3.00;99.90
13310;DHT22;6723;48.256;16.402;2022-12-18T04:49:23;-3.10;99.90
13310;DHT22;6723;48.256;16.402;2022-12-18T04:51:48;-3.10;99.90
13310;DHT22;6723;48.256;16.402;2022-12-18T04:54:14;-3.20;99.90
13310;DHT22;6723;48.256;16.402;2022-12-18T04:56:40;-3.10;99.90
13310;DHT22;6723;48.256;16.402;2022-12-18T04:59:06;-3.10;99.90
13310;DHT22;6723;48.256;16.402;2022-12-18T05:01:32;-3.20;99.90
13310;DHT22;6723;48.256;16.402;2022-12-18T05:03:57;-3.10;99.90
13310;DHT22;6723;48.256;16.402;2022-12-18T05:06:23;-3.10;99.90
13310;DHT22;6723;48.256;16.402;2022-12-18T05:08:49;-3.20;99.90
13310;DHT22;6723;48.256;16.402;2022-12-18T05:11:15;-3.20;99.90
13310;DHT22;6723;48.256;16.402;2022-12-18T05:13:42;-3.20;99.90
13310;DHT22;6723;48.256;16.402;2022-12-18T05:16:09;-3.20;99.90
13310;DHT22;6723;48.256;16.402;2022-12-18T05:18:35;-3.20;99.90
13310;DHT22;6723;48.256;16.402;2022-12-18T05:21:01;-3.20;99.90
13310;DHT22;6723;48.256;16.402;2022-12-18T05:23:27;-3.20;99.90
13310;DHT22;6723;48.256;16.402;2022-12-18T05:25:58;-3.20;99.90
13310;DHT22;6723;48.256;16.402;2022-12-18T05:28:26;-3.30;99.90
13310;DHT22;6723;48.256;16.402;2022-12-18T05:30:55;-3.30;99.90
13310;DHT22;6723;48.256;16.402;2022-12-18T05:33:22;-3.30;99.90
13310;DHT22;6723;48.256;16.402;2022-12-18T05:35:57;-3.40;99.90
13310;DHT22;6723;48.256;16.402;2022-12-18T05:38:25;-3.40;99.90
13310;DHT22;6723;48.256;16.402;2022-12-18T05:40:52;-3.40;99.90
13310;DHT22;6723;48.256;16.402;2022-12-18T05:43:19;-3.50;99.90
13310;DHT22;6723;48.256;16.402;2022-12-18T05:45:45;-3.50;99.90
13310;DHT22;6723;48.256;16.402;2022-12-18T05:48:11;-3.50;99.90
13310;DHT22;6723;48.256;16.402;2022-12-18T05:50:38;-3.50;99.90
13310;DHT22;6723;48.256;16.402;2022-12-18T05:53:05;-3.60;99.90
13310;DHT22;6723;48.256;16.402;2022-12-18T05:55:35;-3.60;99.90
13310;DHT22;6723;48.256;16.402;2022-12-18T05:58:03;-3.70;99.90
13310;DHT22;6723;48.256;16.402;2022-12-18T06:00:30;-3.70;99.90
13310;DHT22;6723;48.256;16.402;2022-12-18T06:02:56;-3.70;99.90
13310;DHT22;6723;48.256;16.402;2022-12-18T06:05:22;-3.80;99.90
13310;DHT22;6723;48.256;16.402;2022-12-18T06:07:47;-3.90;99.90
13310;DHT22;6723;48.256;16.402;2022-12-18T06:10:13;-3.80;99.90
13310;DHT22;6723;48.256;16.402;2022-12-18T06:12:39;-3.80;99.90
13310;DHT22;6723;48.256;16.402;2022-12-18T06:15:06;-3.80;99.90
13310;DHT22;6723;48.256;16.402;2022-12-18T06:17:32;-3.80;99.90
13310;DHT22;6723;48.256;16.402;2022-12-18T06:19:59;-3.90;99.90
13310;DHT22;6723;48.256;16.402;2022-12-18T06:22:25;-3.90;99.90
13310;DHT22;6723;48.256;16.402;2022-12-18T06:24:51;-3.90;99.90
13310;DHT22;6723;48.256;16.402;2022-12-18T06:27:40;-3.90;99.90
13310;DHT22;6723;48.256;16.402;2022-12-18T06:30:09;-3.90;99.90
13310;DHT22;6723;48.256;16.402;2022-12-18T06:32:38;-4.00;99.90
13310;DHT22;6723;48.256;16.402;2022-12-18T06:35:04;-3.90;99.90
13310;DHT22;6723;48.256;16.402;2022-12-18T06:37:31;-4.00;99.90
13310;DHT22;6723;48.256;16.402;2022-12-18T06:39:57;-3.90;99.90
13310;DHT22;6723;48.256;16.402;2022-12-18T06:42:23;-4.00;99.90
13310;DHT22;6723;48.256;16.402;2022-12-18T06:44:49;-3.90;99.90
13310;DHT22;6723;48.256;16.402;2022-12-18T06:47:15;-4.00;99.90
13310;DHT22;6723;48.256;16.402;2022-12-18T06:49:41;-3.90;99.90
13310;DHT22;6723;48.256;16.402;2022-12-18T06:52:07;-3.90;99.90
13310;DHT22;6723;48.256;16.402;2022-12-18T06:54:32;-3.90;99.90
13310;DHT22;6723;48.256;16.402;2022-12-18T06:56:58;-3.80;99.90
13310;DHT22;6723;48.256;16.402;2022-12-18T06:59:24;-3.80;99.90
13310;DHT22;6723;48.256;16.402;2022-12-18T07:01:50;-3.70;99.90
13310;DHT22;6723;48.256;16.402;2022-12-18T07:04:16;-3.70;99.90
13310;DHT22;6723;48.256;16.402;2022-12-18T07:06:52;-3.70;99.90
13310;DHT22;6723;48.256;16.402;2022-12-18T07:09:18;-3.70;99.90
13310;DHT22;6723;48.256;16.402;2022-12-18T07:11:44;-3.70;99.90
13310;DHT22;6723;48.256;16.402;2022-12-18T07:14:09;-3.60;99.90
13310;DHT22;6723;48.256;16.402;2022-12-18T07:16:35;-3.50;99.90
13310;DHT22;6723;48.256;16.402;2022-12-18T07:19:01;-3.50;99.90
13310;DHT22;6723;48.256;16.402;2022-12-18T07:21:27;-3.40;99.90
13310;DHT22;6723;48.256;16.402;2022-12-18T07:23:52;-3.30;99.90
13310;DHT22;6723;48.256;16.402;2022-12-18T07:26:20;-3.30;99.90
13310;DHT22;6723;48.256;16.402;2022-12-18T07:28:50;-3.30;99.90
13310;DHT22;6723;48.256;16.402;2022-12-18T07:31:18;-3.30;99.90
13310;DHT22;6723;48.256;16.402;2022-12-18T07:33:46;-3.10;99.90
13310;DHT22;6723;48.256;16.402;2022-12-18T07:36:12;-3.00;99.90
13310;DHT22;6723;48.256;16.402;2022-12-18T07:38:39;-2.80;99.90
13310;DHT22;6723;48.256;16.402;2022-12-18T07:41:10;-2.70;99.90
13310;DHT22;6723;48.256;16.402;2022-12-18T07:43:37;-2.30;99.90
13310;DHT22;6723;48.256;16.402;2022-12-18T07:46:04;-1.50;99.90
13310;DHT22;6723;48.256;16.402;2022-12-18T07:48:31;-0.90;99.90
13310;DHT22;6723;48.256;16.402;2022-12-18T07:51:04;-0.10;99.90
13310;DHT22;6723;48.256;16.402;2022-12-18T07:53:31;0.20;99.90
13310;DHT22;6723;48.256;16.402;2022-12-18T07:55:59;0.80;99.90
13310;DHT22;6723;48.256;16.402;2022-12-18T07:58:26;1.40;99.90
13310;DHT22;6723;48.256;16.402;2022-12-18T08:00:52;1.90;99.90
13310;DHT22;6723;48.256;16.402;2022-12-18T08:03:18;2.30;99.90
13310;DHT22;6723;48.256;16.402;2022-12-18T08:05:44;2.60;99.90
13310;DHT22;6723;48.256;16.402;2022-12-18T08:08:10;3.10;99.90
13310;DHT22;6723;48.256;16.402;2022-12-18T08:10:37;3.20;99.90
13310;DHT22;6723;48.256;16.402;2022-12-18T08:13:03;3.40;99.90
13310;DHT22;6723;48.256;16.402;2022-12-18T08:15:29;3.60;99.90
13310;DHT22;6723;48.256;16.402;2022-12-18T08:17:58;4.00;99.40
13310;DHT22;6723;48.256;16.402;2022-12-18T08:20:23;4.40;98.40
13310;DHT22;6723;48.256;16.402;2022-12-18T08:22:49;4.60;97.70
13310;DHT22;6723;48.256;16.402;2022-12-18T08:25:15;4.90;97.00
13310;DHT22;6723;48.256;16.402;2022-12-18T08:27:41;5.00;96.40
13310;DHT22;6723;48.256;16.402;2022-12-18T08:30:07;5.00;95.80
13310;DHT22;6723;48.256;16.402;2022-12-18T08:32:33;4.60;95.60
13310;DHT22;6723;48.256;16.402;2022-12-18T08:34:59;4.20;96.00
13310;DHT22;6723;48.256;16.402;2022-12-18T08:37:25;4.00;96.40
13310;DHT22;6723;48.256;16.402;2022-12-18T08:39:51;4.00;96.50
13310;DHT22;6723;48.256;16.402;2022-12-18T08:42:17;4.00;96.50
13310;DHT22;6723;48.256;16.402;2022-12-18T08:45:02;4.00;96.70
13310;DHT22;6723;48.256;16.402;2022-12-18T08:47:28;4.30;96.20
13310;DHT22;6723;48.256;16.402;2022-12-18T08:49:54;3.70;95.60
13310;DHT22;6723;48.256;16.402;2022-12-18T08:52:23;3.00;96.50
13310;DHT22;6723;48.256;16.402;2022-12-18T08:54:49;2.60;97.00
13310;DHT22;6723;48.256;16.402;2022-12-18T08:57:15;2.20;98.10
13310;DHT22;6723;48.256;16.402;2022-12-18T08:59:41;2.00;98.60
13310;DHT22;6723;48.256;16.402;2022-12-18T09:02:10;2.00;99.40
13310;DHT22;6723;48.256;16.402;2022-12-18T09:04:36;2.00;99.30
13310;DHT22;6723;48.256;16.402;2022-12-18T09:07:02;2.20;99.40
13310;DHT22;6723;48.256;16.402;2022-12-18T09:09:27;2.60;99.80
13310;DHT22;6723;48.256;16.402;2022-12-18T09:11:53;2.90;99.60
13310;DHT22;6723;48.256;16.402;2022-12-18T09:14:19;2.70;98.80
13310;DHT22;6723;48.256;16.402;2022-12-18T09:16:47;2.50;98.90
13310;DHT22;6723;48.256;16.402;2022-12-18T09:19:13;2.40;99.20
13310;DHT22;6723;48.256;16.402;2022-12-18T09:21:39;2.60;99.40
13310;DHT22;6723;48.256;16.402;2022-12-18T09:24:06;2.80;99.10
13310;DHT22;6723;48.256;16.402;2022-12-18T09:26:31;2.70;98.60
13310;DHT22;6723;48.256;16.402;2022-12-18T09:28:57;2.70;98.30
13310;DHT22;6723;48.256;16.402;2022-12-18T09:31:24;2.40;98.50
13310;DHT22;6723;48.256;16.402;2022-12-18T09:33:50;2.40;98.80
13310;DHT22;6723;48.256;16.402;2022-12-18T09:36:17;2.20;98.90
13310;DHT22;6723;48.256;16.402;2022-12-18T09:38:44;1.90;99.90
13310;DHT22;6723;48.256;16.402;2022-12-18T09:46:46;1.40;99.90
13310;DHT22;6723;48.256;16.402;2022-12-18T09:49:17;1.20;99.90
13310;DHT22;6723;48.256;16.402;2022-12-18T09:51:54;1.10;99.90
13310;DHT22;6723;48.256;16.402;2022-12-18T09:54:53;1.20;99.90
13310;DHT22;6723;48.256;16.402;2022-12-18T09:57:22;1.10;99.90
13310;DHT22;6723;48.256;16.402;2022-12-18T09:59:59;1.10;99.90
13310;DHT22;6723;48.256;16.402;2022-12-18T10:02:31;1.10;99.90
13310;DHT22;6723;48.256;16.402;2022-12-18T10:07:49;0.90;99.90
13310;DHT22;6723;48.256;16.402;2022-12-18T10:15:53;0.80;99.90
13310;DHT22;6723;48.256;16.402;2022-12-18T10:20:52;0.90;99.90
13310;DHT22;6723;48.256;16.402;2022-12-18T10:26:28;0.80;99.90
13310;DHT22;6723;48.256;16.402;2022-12-18T10:28:57;0.90;99.90
13310;DHT22;6723;48.256;16.402;2022-12-18T10:31:24;0.90;99.90
13310;DHT22;6723;48.256;16.402;2022-12-18T10:33:53;0.70;99.90
13310;DHT22;6723;48.256;16.402;2022-12-18T10:36:20;0.40;99.90
13310;DHT22;6723;48.256;16.402;2022-12-18T10:38:49;0.40;99.90
13310;DHT22;6723;48.256;16.402;2022-12-18T10:43:44;0.40;99.90
13310;DHT22;6723;48.256;16.402;2022-12-18T10:51:40;0.30;99.90
13310;DHT22;6723;48.256;16.402;2022-12-18T10:54:18;0.30;99.90
13310;DHT22;6723;48.256;16.402;2022-12-18T10:56:45;0.20;99.90
13310;DHT22;6723;48.256;16.402;2022-12-18T10:59:13;0.20;99.90
13310;DHT22;6723;48.256;16.402;2022-12-18T11:01:57;0.40;99.90
13310;DHT22;6723;48.256;16.402;2022-12-18T11:04:29;0.20;99.90
13310;DHT22;6723;48.256;16.402;2022-12-18T11:09:27;0.30;99.90
13310;DHT22;6723;48.256;16.402;2022-12-18T11:12:02;0.30;99.90
13310;DHT22;6723;48.256;16.402;2022-12-18T11:14:34;0.30;99.90
13310;DHT22;6723;48.256;16.402;2022-12-18T11:17:00;0.30;99.90
13310;DHT22;6723;48.256;16.402;2022-12-18T11:19:34;0.30;99.90
13310;DHT22;6723;48.256;16.402;2022-12-18T11:22:17;0.20;99.90
13310;DHT22;6723;48.256;16.402;2022-12-18T11:27:25;0.10;99.90
13310;DHT22;6723;48.256;16.402;2022-12-18T11:29:51;0.10;99.90
13310;DHT22;6723;48.256;16.402;2022-12-18T11:32:34;0.30;99.90
13310;DHT22;6723;48.256;16.402;2022-12-18T11:37:31;0.50;99.90
13310;DHT22;6723;48.256;16.402;2022-12-18T11:40:33;0.40;99.90
13310;DHT22;6723;48.256;16.402;2022-12-18T11:43:14;0.40;99.90
13310;DHT22;6723;48.256;16.402;2022-12-18T11:46:01;0.40;99.90
13310;DHT22;6723;48.256;16.402;2022-12-18T11:48:49;0.60;99.90
13310;DHT22;6723;48.256;16.402;2022-12-18T11:52:00;0.70;99.90
13310;DHT22;6723;48.256;16.402;2022-12-18T11:54:19;0.60;99.90
13310;DHT22;6723;48.256;16.402;2022-12-18T11:56:53;0.40;99.90
13310;DHT22;6723;48.256;16.402;2022-12-18T12:16:39;0.00;99.90
13310;DHT22;6723;48.256;16.402;2022-12-18T12:21:58;-0.10;99.90
13310;DHT22;6723;48.256;16.402;2022-12-18T12:38:21;-0.20;99.90
13310;DHT22;6723;48.256;16.402;2022-12-18T12:40:57;-0.30;99.90
13310;DHT22;6723;48.256;16.402;2022-12-18T12:43:42;-0.30;99.90
13310;DHT22;6723;48.256;16.402;2022-12-18T12:46:12;-0.30;99.90
13310;DHT22;6723;48.256;16.402;2022-12-18T12:49:25;-0.40;99.90
13310;DHT22;6723;48.256;16.402;2022-12-18T12:52:10;-0.30;99.90
13310;DHT22;6723;48.256;16.402;2022-12-18T12:54:38;-0.30;99.90
13310;DHT22;6723;48.256;16.402;2022-12-18T13:02:54;-0.30;99.90
13310;DHT22;6723;48.256;16.402;2022-12-18T13:08:26;-0.20;99.90
13310;DHT22;6723;48.256;16.402;2022-12-18T13:10:54;-0.30;99.90
13310;DHT22;6723;48.256;16.402;2022-12-18T13:13:53;-0.40;99.90
13310;DHT22;6723;48.256;16.402;2022-12-18T13:16:21;-0.50;99.90
13310;DHT22;6723;48.256;16.402;2022-12-18T13:18:52;-0.60;99.90
13310;DHT22;6723;48.256;16.402;2022-12-18T13:21:23;-0.60;99.90
13310;DHT22;6723;48.256;16.402;2022-12-18T13:23:50;-0.50;99.90
13310;DHT22;6723;48.256;16.402;2022-12-18T13:31:13;-0.50;99.90
13310;DHT22;6723;48.256;16.402;2022-12-18T13:33:44;-0.40;99.90
13310;DHT22;6723;48.256;16.402;2022-12-18T13:39:09;-0.50;99.90
13310;DHT22;6723;48.256;16.402;2022-12-18T13:41:35;-0.50;99.90
13310;DHT22;6723;48.256;16.402;2022-12-18T13:44:40;-0.60;99.90
13310;DHT22;6723;48.256;16.402;2022-12-18T13:52:54;-0.50;99.90
13310;DHT22;6723;48.256;16.402;2022-12-18T13:55:20;-0.50;99.90
13310;DHT22;6723;48.256;16.402;2022-12-18T13:57:47;-0.50;99.90
13310;DHT22;6723;48.256;16.402;2022-12-18T14:02:49;-0.60;99.90
13310;DHT22;6723;48.256;16.402;2022-12-18T14:05:22;-0.80;99.90
13310;DHT22;6723;48.256;16.402;2022-12-18T14:07:49;-0.80;99.90
13310;DHT22;6723;48.256;16.402;2022-12-18T14:10:16;-0.80;99.90
13310;DHT22;6723;48.256;16.402;2022-12-18T14:12:48;-0.80;99.90
13310;DHT22;6723;48.256;16.402;2022-12-18T14:20:35;-0.80;99.90
13310;DHT22;6723;48.256;16.402;2022-12-18T14:23:01;-0.90;99.90
13310;DHT22;6723;48.256;16.402;2022-12-18T14:25:28;-0.90;99.90
13310;DHT22;6723;48.256;16.402;2022-12-18T14:28:19;-0.90;99.90
13310;DHT22;6723;48.256;16.402;2022-12-18T14:30:47;-0.90;99.90
13310;DHT22;6723;48.256;16.402;2022-12-18T14:33:27;-0.90;99.90
13310;DHT22;6723;48.256;16.402;2022-12-18T14:36:02;-1.00;99.90
13310;DHT22;6723;48.256;16.402;2022-12-18T14:38:36;-1.00;99.90
13310;DHT22;6723;48.256;16.402;2022-12-18T14:41:06;-1.00;99.90
13310;DHT22;6723;48.256;16.402;2022-12-18T14:43:37;-1.10;99.90
13310;DHT22;6723;48.256;16.402;2022-12-18T14:46:05;-1.10;99.90
13310;DHT22;6723;48.256;16.402;2022-12-18T14:51:06;-1.10;99.90
13310;DHT22;6723;48.256;16.402;2022-12-18T14:53:39;-1.00;99.90
13310;DHT22;6723;48.256;16.402;2022-12-18T14:56:35;-1.10;99.90
13310;DHT22;6723;48.256;16.402;2022-12-18T14:59:23;-1.10;99.90
13310;DHT22;6723;48.256;16.402;2022-12-18T15:02:03;-1.20;99.90
13310;DHT22;6723;48.256;16.402;2022-12-18T15:04:36;-1.20;99.90
13310;DHT22;6723;48.256;16.402;2022-12-18T15:07:09;-1.10;99.90
13310;DHT22;6723;48.256;16.402;2022-12-18T15:09:38;-1.00;99.90
13310;DHT22;6723;48.256;16.402;2022-12-18T15:12:05;-1.00;99.90
13310;DHT22;6723;48.256;16.402;2022-12-18T15:14:39;-1.10;99.90
13310;DHT22;6723;48.256;16.402;2022-12-18T15:17:19;-1.10;99.90
13310;DHT22;6723;48.256;16.402;2022-12-18T15:19:48;-1.20;99.90
13310;DHT22;6723;48.256;16.402;2022-12-18T15:22:33;-1.10;99.90
13310;DHT22;6723;48.256;16.402;2022-12-18T15:25:00;-1.10;99.90
13310;DHT22;6723;48.256;16.402;2022-12-18T15:27:31;-1.20;99.90
13310;DHT22;6723;48.256;16.402;2022-12-18T15:32:35;-1.10;99.90
13310;DHT22;6723;48.256;16.402;2022-12-18T15:35:23;-1.20;99.90
13310;DHT22;6723;48.256;16.402;2022-12-18T15:37:50;-1.20;99.90
13310;DHT22;6723;48.256;16.402;2022-12-18T15:40:22;-1.20;99.90
13310;DHT22;6723;48.256;16.402;2022-12-18T15:42:51;-1.10;99.90
13310;DHT22;6723;48.256;16.402;2022-12-18T15:45:35;-1.10;99.90
13310;DHT22;6723;48.256;16.402;2022-12-18T15:48:04;-1.20;99.90
13310;DHT22;6723;48.256;16.402;2022-12-18T15:50:30;-1.20;99.90
13310;DHT22;6723;48.256;16.402;2022-12-18T15:52:56;-1.20;99.90
13310;DHT22;6723;48.256;16.402;2022-12-18T15:55:23;-1.20;99.90
13310;DHT22;6723;48.256;16.402;2022-12-18T15:58:10;-1.20;99.90
13310;DHT22;6723;48.256;16.402;2022-12-18T16:00:38;-1.20;99.90
13310;DHT22;6723;48.256;16.402;2022-12-18T16:03:05;-1.20;99.90
13310;DHT22;6723;48.256;16.402;2022-12-18T16:05:32;-1.20;99.90
13310;DHT22;6723;48.256;16.402;2022-12-18T16:07:58;-1.20;99.90
13310;DHT22;6723;48.256;16.402;2022-12-18T16:10:25;-1.20;99.90
13310;DHT22;6723;48.256;16.402;2022-12-18T16:12:51;-1.20;99.90
13310;DHT22;6723;48.256;16.402;2022-12-18T16:15:17;-1.20;99.90
13310;DHT22;6723;48.256;16.402;2022-12-18T16:17:43;-1.10;99.90
13310;DHT22;6723;48.256;16.402;2022-12-18T16:20:18;-1.20;99.90
13310;DHT22;6723;48.256;16.402;2022-12-18T16:22:45;-1.10;99.90
13310;DHT22;6723;48.256;16.402;2022-12-18T16:25:20;-1.10;99.90
13310;DHT22;6723;48.256;16.402;2022-12-18T16:27:47;-1.00;99.90
13310;DHT22;6723;48.256;16.402;2022-12-18T16:30:14;-0.90;99.90
13310;DHT22;6723;48.256;16.402;2022-12-18T16:32:41;-0.90;99.90
13310;DHT22;6723;48.256;16.402;2022-12-18T16:35:11;-0.90;99.90
13310;DHT22;6723;48.256;16.402;2022-12-18T16:37:38;-0.80;99.90
13310;DHT22;6723;48.256;16.402;2022-12-18T16:40:06;-0.80;99.90
13310;DHT22;6723;48.256;16.402;2022-12-18T16:42:35;-0.90;99.90
13310;DHT22;6723;48.256;16.402;2022-12-18T16:45:02;-0.90;99.90
13310;DHT22;6723;48.256;16.402;2022-12-18T16:47:29;-1.00;99.90
13310;DHT22;6723;48.256;16.402;2022-12-18T16:49:55;-0.90;99.90
13310;DHT22;6723;48.256;16.402;2022-12-18T16:52:21;-1.00;99.90
13310;DHT22;6723;48.256;16.402;2022-12-18T16:54:47;-0.90;99.90
13310;DHT22;6723;48.256;16.402;2022-12-18T16:57:16;-0.80;99.90
13310;DHT22;6723;48.256;16.402;2022-12-18T16:59:42;-0.90;99.90
13310;DHT22;6723;48.256;16.402;2022-12-18T17:02:13;-0.90;99.90
13310;DHT22;6723;48.256;16.402;2022-12-18T17:04:41;-1.00;99.90
13310;DHT22;6723;48.256;16.402;2022-12-18T17:07:08;-1.00;99.90
13310;DHT22;6723;48.256;16.402;2022-12-18T17:09:34;-0.90;99.90
13310;DHT22;6723;48.256;16.402;2022-12-18T17:12:01;-0.90;99.90
13310;DHT22;6723;48.256;16.402;2022-12-18T17:14:26;-0.80;99.90
13310;DHT22;6723;48.256;16.402;2022-12-18T17:16:53;-0.80;99.90
13310;DHT22;6723;48.256;16.402;2022-12-18T17:19:20;-0.90;99.90
13310;DHT22;6723;48.256;16.402;2022-12-18T17:21:48;-0.60;99.90
13310;DHT22;6723;48.256;16.402;2022-12-18T17:24:14;-0.60;99.90
13310;DHT22;6723;48.256;16.402;2022-12-18T17:26:40;-0.60;99.90
13310;DHT22;6723;48.256;16.402;2022-12-18T17:29:06;-0.60;99.90
13310;DHT22;6723;48.256;16.402;2022-12-18T17:31:33;-0.50;99.90
13310;DHT22;6723;48.256;16.402;2022-12-18T17:34:01;-0.50;99.90
13310;DHT22;6723;48.256;16.402;2022-12-18T17:36:28;-0.60;99.90
13310;DHT22;6723;48.256;16.402;2022-12-18T17:39:01;-0.50;99.90
13310;DHT22;6723;48.256;16.402;2022-12-18T17:41:29;-0.60;99.90
13310;DHT22;6723;48.256;16.402;2022-12-18T17:44:04;-0.50;99.90
13310;DHT22;6723;48.256;16.402;2022-12-18T17:46:32;-0.50;99.90
13310;DHT22;6723;48.256;16.402;2022-12-18T17:48:59;-0.60;99.90
13310;DHT22;6723;48.256;16.402;2022-12-18T17:51:26;-0.60;99.90
13310;DHT22;6723;48.256;16.402;2022-12-18T17:53:52;-0.70;99.90
13310;DHT22;6723;48.256;16.402;2022-12-18T17:56:20;-0.40;99.90
13310;DHT22;6723;48.256;16.402;2022-12-18T17:58:46;0.00;99.90
13310;DHT22;6723;48.256;16.402;2022-12-18T18:01:21;-0.20;99.90
13310;DHT22;6723;48.256;16.402;2022-12-18T18:03:47;-0.30;99.90
13310;DHT22;6723;48.256;16.402;2022-12-18T18:06:13;-0.50;99.90